VABB

Chhatrapati Shivaji International Airport

Airport
ICAO code
VABB
IATA Code
BOM
Summary
ICAO Region
APAC
ICAO Territory
Location

Mumbai, Maharashtra

Serving
Mumbai
Elevation
37 ft
Coordinates
19° 5' 26" N , 72° 52' 2" E
KCC
Aw
Metar
Observation
VABB 150000Z 25013KT 2500 HZ FEW012 SCT018 BKN090 27/25 Q1005 NOSIG
Station
Bombay / Santacruz
Date/Time
2022-08-15 00:00:00
Wind direction
250°
Wind speed
13 kts
Lowest cloud amount
few clouds
Temperature
27°C
Dew point
25°C
Humidity
88%
QNH
1005 hPa
Weather condition
n/a

Description

International airport serving the city of Mumbai (formerly Bombay), India.

Climatology

Tropical Savanna climate (Köppen climate classification Aw) - monthly mean temperatures above 18°C, and a pronounced dry season. A Tropical Savanna climate has more pronounced dry seasons than a Tropical Monsoon climate.

Runways

Designator Length Width Surface Rops
14/32 2925 46 ASP Yes/Yes
9/27 3445 45 ASP Yes/Yes

SKYbrary Partners:

Safety knowledge contributed by: